Edgar B Speer — WQZ9670 — position and weather

sailwx.info

Track history (hours):
 
Tides and Currents Weather Stations Pressure Air Temp Water Temp Dewpoint Dewpoint Depression Visibility Wind Speed Wind Dir Waves Ship Positions

Edgar B Speer

Owner: Great Lakes Fleet, Inc, DULUTH, MN. More information available from US FCC via Universal Licensing System and Coast Guard Vessel Documentation Center.

Last reported at 2017-Dec-17 19:07 UTC. Time now 2017-Dec-18 01:18 UTC.
Position N 47°01' W 091°36'.

Length 306 m; draft 7.3 m.

Type: Cargo ship. MMSI: 366971330.

Date/timePositionNaut miles runAvg speedWind from/ knotsBaromVisibWave heightAir tempDewpointWater temp
2017-Dec-17 19:07N 47°01' W 091°36'111.9
2017-Dec-17 19:00N 47°00' W 091°38'1 0.1
2017-Dec-17 08:42N 47°01' W 091°40'0 1.1
2017-Dec-17 08:28N 47°01' W 091°40'1 1.5
2017-Dec-17 08:00N 46°60' W 091°40'320 9.3
2017-Dec-15 21:37N 45°53' W 084°06'112.9
2017-Dec-15 21:30N 45°52' W 084°08'713.2
2017-Dec-15 21:00N 45°52' W 084°17'713.2
2017-Dec-15 20:30N 45°51' W 084°26'713.1
2017-Dec-15 20:00N 45°51' W 084°36'612.1
2017-Dec-15 19:30N 45°49' W 084°44'612.8
2017-Dec-15 19:00N 45°49' W 084°53'613.0
2017-Dec-15 18:30N 45°50' W 085°03'5 9.5
2017-Dec-15 18:00N 45°48' W 085°09'510.4
2017-Dec-15 17:29N 45°43' W 085°12'612.9
2017-Dec-15 17:00N 45°38' W 085°17'612.8
2017-Dec-15 16:30N 45°33' W 085°23'612.9
2017-Dec-15 16:00N 45°27' W 085°28'613.0
2017-Dec-15 15:30N 45°22' W 085°34'612.9
2017-Dec-15 15:00N 45°17' W 085°39'612.8
2017-Dec-15 14:30N 45°12' W 085°45'612.8
2017-Dec-15 14:00N 45°07' W 085°50'  
2017-Dec-12 13:59N 45°52' W 085°55'511.4
2017-Dec-12 13:30N 45°53' W 085°47'510.8
2017-Dec-12 13:01N 45°53' W 085°39'510.0
2017-Dec-12 12:31N 45°54' W 085°32'5 9.2
2017-Dec-12 12:01N 45°53' W 085°26'5 9.5
2017-Dec-12 11:31N 45°53' W 085°19'5 9.5
2017-Dec-12 11:01N 45°52' W 085°12'5 9.7
2017-Dec-12 10:30N 45°51' W 085°05'510.6
2017-Dec-12 10:01N 45°50' W 084°58'611.2
2017-Dec-12 09:31N 45°50' W 084°50'510.9
2017-Dec-12 09:00N 45°49' W 084°42'5 9.8
2017-Dec-12 08:31N 45°51' W 084°35'510.1
2017-Dec-12 08:00N 45°52' W 084°28'510.0
2017-Dec-12 07:30N 45°53' W 084°21'307 7.8
2017-Dec-10 16:20N 47°01' W 091°35'411.1
2017-Dec-10 16:01N 47°00' W 091°40'1 0.1
2017-Dec-10 08:52N 47°01' W 091°40'0 0.0
2017-Dec-10 07:52N 47°01' W 091°40'0 0.0
2017-Dec-10 07:28N 47°01' W 091°40'0 0.0
2017-Dec-10 07:00N 47°01' W 091°40'0 0.3
2017-Dec-10 06:28N 47°01' W 091°40'1 1.6
2017-Dec-10 06:00N 46°60' W 091°40'336 9.7
2017-Dec-08 19:24N 45°48' W 083°45'610.4
2017-Dec-08 18:49N 45°43' W 083°40'310.4
2017-Dec-08 18:30N 45°40' W 083°37'510.4
2017-Dec-08 18:00N 45°36' W 083°33'510.1
2017-Dec-08 17:30N 45°32' W 083°29'711.4
2017-Dec-08 16:55N 45°26' W 083°23'  
Track history (hours):
 
Tides and Currents Weather Stations Pressure Air Temp Water Temp Dewpoint Dewpoint Depression Visibility Wind Speed Wind Dir Waves Ship Positions

Edgar B Speer

Owner: Great Lakes Fleet, Inc, DULUTH, MN. More information available from US FCC via Universal Licensing System and Coast Guard Vessel Documentation Center.

Last reported at 2017-Dec-17 19:07 UTC. Time now 2017-Dec-18 01:18 UTC.
Position N 47°01' W 091°36'.

Length 306 m; draft 7.3 m.

Type: Cargo ship. MMSI: 366971330.

Date/timePositionNaut miles runAvg speedWind from/ knotsBaromVisibWave heightAir tempDewpointWater temp
2017-Dec-17 19:07N 47°01' W 091°36'111.9
2017-Dec-17 19:00N 47°00' W 091°38'1 0.1
2017-Dec-17 08:42N 47°01' W 091°40'0 1.1
2017-Dec-17 08:28N 47°01' W 091°40'1 1.5
2017-Dec-17 08:00N 46°60' W 091°40'320 9.3
2017-Dec-15 21:37N 45°53' W 084°06'112.9
2017-Dec-15 21:30N 45°52' W 084°08'713.2
2017-Dec-15 21:00N 45°52' W 084°17'713.2
2017-Dec-15 20:30N 45°51' W 084°26'713.1
2017-Dec-15 20:00N 45°51' W 084°36'612.1
2017-Dec-15 19:30N 45°49' W 084°44'612.8
2017-Dec-15 19:00N 45°49' W 084°53'613.0
2017-Dec-15 18:30N 45°50' W 085°03'5 9.5
2017-Dec-15 18:00N 45°48' W 085°09'510.4
2017-Dec-15 17:29N 45°43' W 085°12'612.9
2017-Dec-15 17:00N 45°38' W 085°17'612.8
2017-Dec-15 16:30N 45°33' W 085°23'612.9
2017-Dec-15 16:00N 45°27' W 085°28'613.0
2017-Dec-15 15:30N 45°22' W 085°34'612.9
2017-Dec-15 15:00N 45°17' W 085°39'612.8
2017-Dec-15 14:30N 45°12' W 085°45'612.8
2017-Dec-15 14:00N 45°07' W 085°50'  
2017-Dec-12 13:59N 45°52' W 085°55'511.4
2017-Dec-12 13:30N 45°53' W 085°47'510.8
2017-Dec-12 13:01N 45°53' W 085°39'510.0
2017-Dec-12 12:31N 45°54' W 085°32'5 9.2
2017-Dec-12 12:01N 45°53' W 085°26'5 9.5
2017-Dec-12 11:31N 45°53' W 085°19'5 9.5
2017-Dec-12 11:01N 45°52' W 085°12'5 9.7
2017-Dec-12 10:30N 45°51' W 085°05'510.6
2017-Dec-12 10:01N 45°50' W 084°58'611.2
2017-Dec-12 09:31N 45°50' W 084°50'510.9
2017-Dec-12 09:00N 45°49' W 084°42'5 9.8
2017-Dec-12 08:31N 45°51' W 084°35'510.1
2017-Dec-12 08:00N 45°52' W 084°28'510.0
2017-Dec-12 07:30N 45°53' W 084°21'307 7.8
2017-Dec-10 16:20N 47°01' W 091°35'411.1
2017-Dec-10 16:01N 47°00' W 091°40'1 0.1
2017-Dec-10 08:52N 47°01' W 091°40'0 0.0
2017-Dec-10 07:52N 47°01' W 091°40'0 0.0
2017-Dec-10 07:28N 47°01' W 091°40'0 0.0
2017-Dec-10 07:00N 47°01' W 091°40'0 0.3
2017-Dec-10 06:28N 47°01' W 091°40'1 1.6
2017-Dec-10 06:00N 46°60' W 091°40'336 9.7
2017-Dec-08 19:24N 45°48' W 083°45'610.4
2017-Dec-08 18:49N 45°43' W 083°40'310.4
2017-Dec-08 18:30N 45°40' W 083°37'510.4
2017-Dec-08 18:00N 45°36' W 083°33'510.1
2017-Dec-08 17:30N 45°32' W 083°29'711.4
2017-Dec-08 16:55N 45°26' W 083°23'  

Dump ship's entire track history